METAR Data
IDs: Format: Raw Decoded Include TAF

Data at: 2253 UTC 25 Oct 2021

LFRM 252230Z AUTO 00000KT 0750 FG FEW006 10/10 Q1022